Latest Coastal Weather Observations for Redcliffe

IDQ60701

Issued at 12:05 am EST Friday 22 August 2014 (issued every 10 minutes, with the page automatically refreshed every 10 minutes)

About coastal observations | Map of coastal stations | Coastal observations for QLD | Marine services | Other Formats
Station Details ID: 040958 Name: REDCLIFFE Lat: -27.22 Lon: 153.09 Height: 12.6 m
Data from the previous 72 hours. | See also: Recent months at Redcliffe
Date/Time
EST
Temp

°C
Wind Pressure Rain
since 9am
mm
Weather Cloud Vis
km
Sea
Height
m
Swell
Dir
 
Speed
knots
Gust
knots
hPa Trend Height
m
Period
s
Dir
22/12:00am 15.6 S 15 20 1023.8 - 0.0 - - - - - - -
 
Date/Time
EST
Temp

°C
Wind Pressure Rain
since 9am
mm
Weather Cloud Vis
km
Sea
Height
m
Swell
Dir
 
Speed
knots
Gust
knots
hPa Trend Height
m
Period
s
Dir
21/11:30pm 15.7 S 16 19 1023.9 - 0.0 - - - - - - -
21/11:00pm 15.7 S 15 19 1024.2 - 0.0 - - - - - - -
21/10:30pm 15.8 S 11 15 1024.5 - 0.0 - - - - - - -
21/10:00pm 15.8 SSW 10 14 1024.3 - 0.0 - - - - - - -
21/09:30pm 16.2 S 14 20 1024.4 - 0.0 - - - - - - -
21/09:00pm 16.5 S 16 21 1024.2 - 0.0 - - - - - - -
21/08:30pm 16.7 SSE 19 23 1024.0 - 0.0 - - - - - - -
21/08:00pm 16.7 S 19 24 1023.6 - 0.0 - - - - - - -
21/07:30pm 16.8 SSE 20 24 1023.2 - 0.0 - - - - - - -
21/07:00pm 16.9 SSE 22 26 1022.8 - 0.0 - - - - - - -
21/06:30pm 16.8 S 21 24 1022.9 - 0.0 - - - - - - -
21/06:00pm 16.3 SSE 25 31 1022.2 - 0.0 - - - - - - -
21/05:30pm 17.5 SSE 23 29 1021.9 - 0.0 - - - - - - -
21/05:00pm 18.0 SSE 23 28 1021.7 - 0.0 - - - - - - -
21/04:30pm 18.3 SSE 22 27 1021.3 - 0.0 - - - - - - -
21/04:00pm 18.8 SSE 24 33 1020.7 - 0.0 - - - - - - -
21/03:59pm 18.7 SSE 23 33 1020.6 - 0.0 - - - - - - -
21/03:30pm 19.2 SSE 25 30 1020.4 - 0.0 - - - - - - -
21/03:00pm 19.3 SSE 23 28 1020.5 - 0.0 - - - - - - -
21/02:30pm 19.4 SE 23 27 1020.5 - 0.0 - - - - - - -
21/02:00pm 19.7 SE 20 23 1020.8 - 0.0 - - - - - - -
21/01:30pm 19.8 SSE 20 24 1021.0 - 0.0 - - - - - - -
21/01:00pm 20.1 SSE 21 25 1020.9 - 0.0 - - - - - - -
21/12:30pm 19.8 SE 19 23 1021.4 - 0.0 - - - - - - -
21/12:00pm 19.9 SSE 20 22 1022.0 - 0.0 - - - - - - -
21/11:30am 20.4 SSE 15 18 1022.5 - 0.0 - - - - - - -
21/11:00am 19.8 SSE 20 23 1022.7 - 0.0 - - - - - - -
21/10:30am 19.6 SSE 18 22 1022.9 - 0.0 - - - - - - -
21/10:00am 19.7 S 11 13 1023.1 - 0.0 - - - - - - -
21/09:30am 18.4 S 13 15 1023.1 - 0.0 - - - - - - -
21/09:00am 17.8 S 9 13 1023.3 - 0.0 - - - - - - -
21/08:30am 16.8 SSW 9 13 1023.1 - 0.0 - - - - - - -
21/08:00am 15.5 SSW 9 14 1023.0 - 0.0 - - - - - - -
21/07:30am 14.5 SSW 14 18 1022.1 - 0.0 - - - - - - -
21/07:00am 13.6 SSW 12 17 1022.0 - 0.0 - - - - - - -
21/06:30am 13.2 SSW 10 16 1022.0 - 0.0 - - - - - - -
21/06:00am 13.0 SSW 9 13 1022.0 - 0.0 - - - - - - -
21/05:30am 13.3 SSW 9 14 1021.8 - 0.0 - - - - - - -
21/05:00am 13.1 SSW 7 10 1021.6 - 0.0 - - - - - - -
21/04:30am 13.1 SSW 7 9 1021.5 - 0.0 - - - - - - -
21/04:00am 13.0 SSW 8 11 1021.3 - 0.0 - - - - - - -
21/03:30am 13.1 SSW 8 12 1021.2 - 0.0 - - - - - - -
21/03:00am 12.9 SW 7 9 1021.4 - 0.0 - - - - - - -
21/02:30am 13.2 SW 8 10 1021.5 - 0.0 - - - - - - -
21/02:00am 13.2 SSW 7 9 1021.6 - 0.0 - - - - - - -
21/01:30am 13.5 SSW 6 8 1021.7 - 0.0 - - - - - - -
21/01:00am 13.9 SSW 7 9 1021.9 - 0.0 - - - - - - -
21/12:30am 14.5 SSW 7 10 1022.0 - 0.0 - - - - - - -
21/12:00am 15.2 SSW 8 11 1022.0 - 0.0 - - - - - - -
 
Date/Time
EST
Temp

°C
Wind Pressure Rain
since 9am
mm
Weather Cloud Vis
km
Sea
Height
m
Swell
Dir
 
Speed
knots
Gust
knots
hPa Trend Height
m
Period
s
Dir
20/11:30pm 15.7 S 13 16 1022.1 - 0.0 - - - - - - -
20/11:00pm 16.1 S 15 17 1022.2 - 0.0 - - - - - - -
20/10:30pm 16.4 S 16 18 1022.3 - 0.0 - - - - - - -
20/10:00pm 16.5 S 15 18 1022.3 - 0.0 - - - - - - -
20/09:30pm 16.9 S 15 18 1022.1 - 0.0 - - - - - - -
20/09:00pm 17.2 SSE 18 20 1022.1 - 0.0 - - - - - - -
20/08:30pm 17.4 SSE 18 21 1021.9 - 0.0 - - - - - - -
20/08:00pm 17.6 SSE 18 21 1021.8 - 0.0 - - - - - - -
20/07:30pm 18.1 SSE 19 24 1021.2 - 0.0 - - - - - - -
20/07:00pm 18.1 SE 18 21 1021.1 - 0.0 - - - - - - -
20/06:30pm 17.9 SE 17 20 1020.5 - 0.0 - - - - - - -
20/06:00pm 18.0 SE 18 20 1020.0 - 0.0 - - - - - - -
20/05:30pm 18.2 SE 17 19 1019.5 - 0.0 - - - - - - -
20/05:00pm 18.5 SE 15 18 1019.3 - 0.0 - - - - - - -
20/04:30pm 18.9 SE 16 19 1018.7 - 0.0 - - - - - - -
20/04:00pm 19.3 SE 10 12 1018.4 - 0.0 - - - - - - -
20/03:30pm 19.3 ESE 11 14 1018.2 - 0.0 - - - - - - -
20/03:00pm 19.9 ESE 10 13 1018.1 - 0.0 - - - - - - -
20/02:30pm 20.0 SE 9 10 1018.1 - 0.0 - - - - - - -
20/02:00pm 20.0 ESE 10 13 1018.3 - 0.0 - - - - - - -
20/01:30pm 19.7 ESE 9 15 1018.4 - 0.0 - - - - - - -
20/01:00pm 20.4 SE 9 10 1018.6 - 0.0 - - - - - - -
20/12:30pm 19.6 SE 5 6 1018.7 - 0.0 - - - - - - -
20/12:00pm 19.7 E 6 7 1019.0 - 0.0 - - - - - - -
20/11:30am 19.6 SE 5 7 1019.4 - 0.0 - - - - - - -
20/11:00am 20.5 S 7 8 1019.7 - 0.0 - - - - - - -
20/10:30am 20.4 S 9 10 1019.9 - 0.0 - - - - - - -
20/10:00am 20.0 S 9 13 1020.1 - 0.0 - - - - - - -
20/09:30am 19.5 S 9 13 1020.1 - 0.0 - - - - - - -
20/09:00am 18.3 SSW 9 12 1020.0 - 0.0 - - - - - - -
20/08:30am 17.5 SSW 9 13 1019.9 - 0.0 - - - - - - -
20/08:00am 15.6 SW 7 9 1019.9 - 0.0 - - - - - - -
20/07:30am 14.0 WSW 7 9 1019.8 - 0.0 - - - - - - -
20/07:00am 12.2 WSW 7 8 1019.4 - 0.0 - - - - - - -
20/06:30am 10.7 SW 8 9 1019.0 - 0.0 - - - - - - -
20/06:00am 11.1 WSW 5 7 1018.7 - 0.0 - - - - - - -
20/05:30am 11.8 WSW 6 7 1018.4 - 0.0 - - - - - - -
20/05:00am 11.9 WSW 5 6 1017.8 - 0.0 - - - - - - -
20/04:30am 11.5 SW 6 8 1017.5 - 0.0 - - - - - - -
20/04:00am 11.5 WSW 7 9 1017.2 - 0.0 - - - - - - -
20/03:30am 11.7 WSW 7 8 1016.9 - 0.0 - - - - - - -
20/03:00am 11.3 WSW 5 6 1016.7 - 0.0 - - - - - - -
20/02:30am 11.9 WSW 5 7 1016.8 - 0.0 - - - - - - -
20/02:00am 12.6 WSW 6 8 1016.8 - 0.0 - - - - - - -
20/01:30am 12.9 WSW 6 7 1016.7 - 0.0 - - - - - - -
20/01:00am 13.4 WSW 5 7 1016.6 - 0.0 - - - - - - -
20/12:30am 13.9 W 5 7 1016.7 - 0.0 - - - - - - -
20/12:00am 14.0 WSW 6 7 1016.7 - 0.0 - - - - - - -
 
Date/Time
EST
Temp

°C
Wind Pressure Rain
since 9am
mm
Weather Cloud Vis
km
Sea
Height
m
Swell
Dir
 
Speed
knots
Gust
knots
hPa Trend Height
m
Period
s
Dir
19/11:30pm 14.5 WSW 7 9 1016.7 - 0.0 - - - - - - -
19/11:00pm 14.1 WSW 6 8 1016.7 - 0.0 - - - - - - -
19/10:30pm 15.0 W 7 9 1016.4 - 0.0 - - - - - - -
19/10:00pm 15.5 WSW 7 10 1016.3 - 0.0 - - - - - - -
19/09:30pm 15.9 WSW 6 10 1016.3 - 0.0 - - - - - - -
19/09:00pm 16.5 W 7 8 1016.0 - 0.0 - - - - - - -
19/08:30pm 17.2 WSW 9 15 1015.8 - 0.0 - - - - - - -
19/08:00pm 17.1 WSW 8 13 1015.6 - 0.0 - - - - - - -
19/07:30pm 17.4 WSW 9 13 1015.3 - 0.0 - - - - - - -
19/07:00pm 18.5 WSW 9 16 1014.7 - 0.0 - - - - - - -
19/06:30pm 18.9 WSW 12 18 1014.2 - 0.0 - - - - - - -
19/06:00pm 19.2 WSW 9 17 1013.8 - 0.0 - - - - - - -
19/05:30pm 19.6 WSW 10 15 1012.9 - 0.0 - - - - - - -
19/05:00pm 20.6 WSW 13 19 1012.2 - 0.0 - - - - - - -
19/04:30pm 21.2 WSW 11 19 1011.9 - 0.0 - - - - - - -
19/04:00pm 21.7 W 17 24 1011.7 - 0.0 - - - - - - -
19/03:30pm 21.9 W 14 21 1011.2 - 0.0 - - - - - - -
19/03:00pm 22.3 W 15 21 1011.1 - 0.0 - - - - - - -
19/02:30pm 22.5 W 11 17 1011.2 - 0.0 - - - - - - -
19/02:00pm 22.3 W 13 21 1011.4 - 0.0 - - - - - - -
19/01:30pm 21.6 W 15 19 1011.4 - 0.0 - - - - - - -
19/01:00pm 21.3 W 12 22 1011.5 - 0.0 - - - - - - -
19/12:30pm 21.7 WSW 10 15 1011.8 - 0.0 - - - - - - -
19/12:00pm 20.8 W 10 15 1012.3 - 0.0 - - - - - - -
19/11:30am 20.2 W 13 17 1012.7 - 0.0 - - - - - - -
19/11:00am 19.5 SW 10 15 1013.0 - 0.0 - - - - - - -
19/10:30am 19.6 W 13 19 1013.5 - 0.0 - - - - - - -
19/10:00am 18.7 WSW 15 20 1013.7 - 0.0 - - - - - - -
19/09:30am 18.2 WSW 12 18 1013.6 - 0.0 - - - - - - -
19/09:00am 17.9 WSW 11 16 1013.8 - 0.0 - - - - - - -
19/08:30am 17.3 W 12 17 1013.9 - 0.0 - - - - - - -
19/08:00am 16.2 WNW 8 10 1013.7 - 0.0 - - - - - - -
19/07:30am 15.0 NNW 9 13 1013.7 - 0.0 - - - - - - -
19/07:00am 13.6 N 7 11 1013.4 - 0.0 - - - - - - -
19/06:30am 13.3 W 10 17 1013.3 - 0.0 - - - - - - -
19/06:00am 13.6 W 9 13 1013.0 - 0.0 - - - - - - -
19/05:30am 13.5 W 7 10 1012.8 - 0.0 - - - - - - -
19/05:00am 13.2 WNW 4 10 1012.3 - 0.0 - - - - - - -
19/04:30am 14.0 WNW 6 10 1012.3 - 0.0 - - - - - - -
19/04:00am 13.9 W 8 13 1012.1 - 0.0 - - - - - - -
19/03:30am 14.6 W 8 12 1012.2 - 0.0 - - - - - - -
19/03:00am 14.7 WSW 9 14 1012.2 - 0.0 - - - - - - -
19/02:30am 15.0 WSW 9 14 1012.1 - 0.0 - - - - - - -
19/02:00am 15.0 WSW 10 16 1012.3 - 0.0 - - - - - - -
19/01:30am 16.0 WSW 8 13 1012.3 - 0.0 - - - - - - -
19/01:00am 16.3 W 11 15 1012.3 - 0.0 - - - - - - -
19/12:30am 16.2 W 15 24 1012.5 - 0.0 - - - - - - -
19/12:18am 16.4 W 15 29 1012.6 - 0.0 - - - - - - -

Other Formats:

Comma delimited format used in spreadsheet applications
http://www.bom.gov.au/fwo/IDQ60701/IDQ60701.95591.axf

JavaScript Object Notation format (JSON) in row-major order
http://www.bom.gov.au/fwo/IDQ60701/IDQ60701.95591.json